Austin, TX

3:04 AM CST on December 29, 2014 (GMT -0600)
Austin Bergstrom International | Change Station
CLOSE
Current Station
Airport
Location: Austin Bergstrom,
Elevation: 541 ft
Nearby Weather Stations

Elev 541 ft 30.19 °N, 97.67 °W | Updated 11 minutes ago

Clear
Clear
25 °F
Feels Like 25 °F
N
0
Wind Variable Wind from North

Today
High -- | Low -- °F
--% Chance of Precip.
Yesterday
High -- | Low -- °F
Precip. -- in
7:26 AM 5:39 PM
First Quarter, 57% visible
Pressure 30.17 in
Visibility 9.0 miles
Clouds Clear
Dew Point 24 °F
Humidity 96%
Rainfall 0.00 in
Snow Depth Not available.
UV 0 out of 12
Pollen 8.90 out of 12
Air Quality Not available.
Flu Activity Not available.
METAR KAUS 290853Z 00000KT 9SM CLR M04/M04 A3014 RMK AO2 SLP214 T10391044 55012

More Conditions Fewer Conditions

Pressure 30.17 in
Visibility 9.0 miles
Clouds Clear
Dew Point 24 °F
Humidity 96%
Rainfall 0.00 in
Snow Depth Not available.
UV 0 out of 12
Pollen 8.90 out of 12
Air Quality Not available.
Flu Activity Not available.
METAR KAUS 290853Z 00000KT 9SM CLR M04/M04 A3014 RMK AO2 SLP214 T10391044 55012

More Conditions Fewer Conditions

10-Day Weather Forecast

Almanac

Astronomy

Dec. 29, 2014 Rise Set
Actual Time
Civil Twilight
Nautical Twilight
Astronomical Twilight
Moon
Length of Visible Light
Length of Day
Tomorrow will be .
, % of the Moon is Illuminated

Today's Extremes

State Highs State Lows

Community

WunderPhotos

Upload Photos

1,781,559 photos uploaded!

WunderBlogs® & News

Nearby

Air Quality

  Air Quality AQ Index Pollutant
Not available.

Snow Depth

Station Depth Elevation

Earthquake Activity

City Distance Mag. Time & Date
Minimum magnitude displayed is 2.5.

Coastal Water Temperatures

Place Temperature

Nearby Weather Stations